sensor_id;sensor_type;location;lat;lon;timestamp;P1;durP1;ratioP1;P2;durP2;ratioP2
2944;SDS011;1482;51.398;7.128;2023-05-10T00:01:20;4.80;;;4.40;;
2944;SDS011;1482;51.398;7.128;2023-05-10T00:03:46;10.03;;;5.50;;
2944;SDS011;1482;51.398;7.128;2023-05-10T00:06:12;6.97;;;5.70;;
2944;SDS011;1482;51.398;7.128;2023-05-10T00:08:37;8.00;;;6.23;;
2944;SDS011;1482;51.398;7.128;2023-05-10T00:11:03;6.93;;;6.20;;
2944;SDS011;1482;51.398;7.128;2023-05-10T00:13:28;8.30;;;6.80;;
2944;SDS011;1482;51.398;7.128;2023-05-10T00:15:54;7.67;;;6.90;;
2944;SDS011;1482;51.398;7.128;2023-05-10T00:18:19;18.50;;;9.40;;
2944;SDS011;1482;51.398;7.128;2023-05-10T00:20:45;8.73;;;7.83;;
2944;SDS011;1482;51.398;7.128;2023-05-10T00:23:11;11.70;;;9.70;;
2944;SDS011;1482;51.398;7.128;2023-05-10T00:25:37;13.10;;;9.20;;
2944;SDS011;1482;51.398;7.128;2023-05-10T00:28:02;10.60;;;9.17;;
2944;SDS011;1482;51.398;7.128;2023-05-10T00:30:28;13.07;;;10.27;;
2944;SDS011;1482;51.398;7.128;2023-05-10T00:32:53;12.47;;;9.83;;
2944;SDS011;1482;51.398;7.128;2023-05-10T00:35:19;12.70;;;9.40;;
2944;SDS011;1482;51.398;7.128;2023-05-10T00:37:46;16.47;;;10.20;;
2944;SDS011;1482;51.398;7.128;2023-05-10T00:40:12;15.73;;;10.03;;
2944;SDS011;1482;51.398;7.128;2023-05-10T00:42:37;12.47;;;9.00;;
2944;SDS011;1482;51.398;7.128;2023-05-10T00:45:03;15.30;;;11.87;;
2944;SDS011;1482;51.398;7.128;2023-05-10T00:47:29;13.00;;;9.33;;
2944;SDS011;1482;51.398;7.128;2023-05-10T00:49:55;12.70;;;9.47;;
2944;SDS011;1482;51.398;7.128;2023-05-10T00:52:21;13.30;;;9.40;;
2944;SDS011;1482;51.398;7.128;2023-05-10T00:54:48;12.43;;;10.07;;
2944;SDS011;1482;51.398;7.128;2023-05-10T00:57:16;9.60;;;8.57;;
2944;SDS011;1482;51.398;7.128;2023-05-10T00:59:41;12.20;;;10.47;;
2944;SDS011;1482;51.398;7.128;2023-05-10T01:02:07;11.27;;;8.30;;
2944;SDS011;1482;51.398;7.128;2023-05-10T01:04:32;11.80;;;8.83;;
2944;SDS011;1482;51.398;7.128;2023-05-10T01:06:58;14.37;;;10.50;;
2944;SDS011;1482;51.398;7.128;2023-05-10T01:09:24;12.10;;;9.97;;
2944;SDS011;1482;51.398;7.128;2023-05-10T01:11:51;14.67;;;11.70;;
2944;SDS011;1482;51.398;7.128;2023-05-10T01:14:18;15.83;;;12.80;;
2944;SDS011;1482;51.398;7.128;2023-05-10T01:16:44;17.00;;;11.03;;
2944;SDS011;1482;51.398;7.128;2023-05-10T01:19:17;12.50;;;10.90;;
2944;SDS011;1482;51.398;7.128;2023-05-10T01:21:57;12.37;;;11.07;;
2944;SDS011;1482;51.398;7.128;2023-05-10T01:24:46;16.30;;;13.30;;
2944;SDS011;1482;51.398;7.128;2023-05-10T01:28:21;16.00;;;13.87;;
2944;SDS011;1482;51.398;7.128;2023-05-10T01:36:32;16.77;;;14.60;;
2944;SDS011;1482;51.398;7.128;2023-05-10T01:39:07;18.30;;;15.23;;
2944;SDS011;1482;51.398;7.128;2023-05-10T01:41:49;18.03;;;14.20;;
2944;SDS011;1482;51.398;7.128;2023-05-10T01:44:34;20.57;;;15.40;;
2944;SDS011;1482;51.398;7.128;2023-05-10T01:47:11;18.93;;;13.87;;
2944;SDS011;1482;51.398;7.128;2023-05-10T01:49:49;19.47;;;15.17;;
2944;SDS011;1482;51.398;7.128;2023-05-10T01:52:18;23.33;;;15.17;;
2944;SDS011;1482;51.398;7.128;2023-05-10T01:54:50;21.67;;;14.93;;
2944;SDS011;1482;51.398;7.128;2023-05-10T01:57:32;21.03;;;15.10;;
2944;SDS011;1482;51.398;7.128;2023-05-10T01:59:59;25.57;;;17.50;;
2944;SDS011;1482;51.398;7.128;2023-05-10T02:02:27;22.57;;;16.17;;
2944;SDS011;1482;51.398;7.128;2023-05-10T02:04:55;25.63;;;18.03;;
2944;SDS011;1482;51.398;7.128;2023-05-10T02:07:22;25.00;;;17.40;;
2944;SDS011;1482;51.398;7.128;2023-05-10T02:09:48;26.73;;;18.07;;
2944;SDS011;1482;51.398;7.128;2023-05-10T02:12:15;26.90;;;18.03;;
2944;SDS011;1482;51.398;7.128;2023-05-10T02:14:42;22.10;;;16.03;;
2944;SDS011;1482;51.398;7.128;2023-05-10T02:17:09;23.60;;;16.70;;
2944;SDS011;1482;51.398;7.128;2023-05-10T02:19:36;21.77;;;15.23;;
2944;SDS011;1482;51.398;7.128;2023-05-10T02:22:04;25.93;;;14.13;;
2944;SDS011;1482;51.398;7.128;2023-05-10T02:24:30;18.43;;;13.90;;
2944;SDS011;1482;51.398;7.128;2023-05-10T02:26:58;20.00;;;13.03;;
2944;SDS011;1482;51.398;7.128;2023-05-10T02:29:25;22.50;;;14.20;;
2944;SDS011;1482;51.398;7.128;2023-05-10T02:31:52;20.90;;;14.40;;
2944;SDS011;1482;51.398;7.128;2023-05-10T02:34:20;23.13;;;15.20;;
2944;SDS011;1482;51.398;7.128;2023-05-10T02:36:47;24.13;;;15.77;;
2944;SDS011;1482;51.398;7.128;2023-05-10T02:39:15;31.10;;;15.80;;
2944;SDS011;1482;51.398;7.128;2023-05-10T02:41:42;21.10;;;15.80;;
2944;SDS011;1482;51.398;7.128;2023-05-10T02:44:10;22.67;;;16.87;;
2944;SDS011;1482;51.398;7.128;2023-05-10T02:46:36;29.53;;;18.60;;
2944;SDS011;1482;51.398;7.128;2023-05-10T02:49:02;22.93;;;17.57;;
2944;SDS011;1482;51.398;7.128;2023-05-10T02:51:30;29.07;;;18.47;;
2944;SDS011;1482;51.398;7.128;2023-05-10T02:53:57;27.20;;;18.10;;
2944;SDS011;1482;51.398;7.128;2023-05-10T02:56:57;24.90;;;18.83;;
2944;SDS011;1482;51.398;7.128;2023-05-10T02:59:25;24.70;;;18.90;;
2944;SDS011;1482;51.398;7.128;2023-05-10T03:01:51;30.33;;;19.73;;
2944;SDS011;1482;51.398;7.128;2023-05-10T03:04:17;28.70;;;20.20;;
2944;SDS011;1482;51.398;7.128;2023-05-10T03:06:42;24.30;;;18.30;;
2944;SDS011;1482;51.398;7.128;2023-05-10T03:09:09;29.23;;;19.83;;
2944;SDS011;1482;51.398;7.128;2023-05-10T03:11:43;28.00;;;19.03;;
2944;SDS011;1482;51.398;7.128;2023-05-10T03:17:04;25.87;;;18.87;;
2944;SDS011;1482;51.398;7.128;2023-05-10T03:19:40;23.07;;;18.03;;
2944;SDS011;1482;51.398;7.128;2023-05-10T03:22:11;26.50;;;16.93;;
2944;SDS011;1482;51.398;7.128;2023-05-10T03:24:41;23.60;;;17.67;;
2944;SDS011;1482;51.398;7.128;2023-05-10T03:27:08;22.90;;;17.10;;
2944;SDS011;1482;51.398;7.128;2023-05-10T03:29:35;23.93;;;19.90;;
2944;SDS011;1482;51.398;7.128;2023-05-10T03:32:02;22.17;;;17.37;;
2944;SDS011;1482;51.398;7.128;2023-05-10T03:34:29;22.90;;;17.13;;
2944;SDS011;1482;51.398;7.128;2023-05-10T03:36:56;26.93;;;18.83;;
2944;SDS011;1482;51.398;7.128;2023-05-10T03:39:22;20.73;;;16.10;;
2944;SDS011;1482;51.398;7.128;2023-05-10T03:41:47;21.47;;;16.03;;
2944;SDS011;1482;51.398;7.128;2023-05-10T03:44:13;26.67;;;18.27;;
2944;SDS011;1482;51.398;7.128;2023-05-10T03:46:38;24.40;;;18.33;;
2944;SDS011;1482;51.398;7.128;2023-05-10T03:49:04;22.00;;;16.43;;
2944;SDS011;1482;51.398;7.128;2023-05-10T03:51:29;22.57;;;16.97;;
2944;SDS011;1482;51.398;7.128;2023-05-10T03:53:56;26.40;;;16.37;;
2944;SDS011;1482;51.398;7.128;2023-05-10T03:56:21;35.87;;;16.80;;
2944;SDS011;1482;51.398;7.128;2023-05-10T03:58:47;20.70;;;15.40;;
2944;SDS011;1482;51.398;7.128;2023-05-10T04:01:12;26.23;;;16.90;;
2944;SDS011;1482;51.398;7.128;2023-05-10T04:03:38;25.23;;;16.43;;
2944;SDS011;1482;51.398;7.128;2023-05-10T04:06:04;24.70;;;17.07;;
2944;SDS011;1482;51.398;7.128;2023-05-10T04:08:30;22.87;;;16.20;;
2944;SDS011;1482;51.398;7.128;2023-05-10T04:11:05;27.97;;;18.37;;
2944;SDS011;1482;51.398;7.128;2023-05-10T04:13:35;26.10;;;16.83;;
2944;SDS011;1482;51.398;7.128;2023-05-10T04:16:01;26.30;;;18.20;;
2944;SDS011;1482;51.398;7.128;2023-05-10T04:18:26;30.10;;;18.80;;
2944;SDS011;1482;51.398;7.128;2023-05-10T04:20:52;26.80;;;18.43;;
2944;SDS011;1482;51.398;7.128;2023-05-10T04:23:18;28.20;;;17.83;;
2944;SDS011;1482;51.398;7.128;2023-05-10T04:25:43;30.27;;;19.67;;
2944;SDS011;1482;51.398;7.128;2023-05-10T04:28:09;30.00;;;18.67;;
2944;SDS011;1482;51.398;7.128;2023-05-10T04:30:34;34.40;;;20.20;;
2944;SDS011;1482;51.398;7.128;2023-05-10T04:33:00;30.33;;;21.13;;
2944;SDS011;1482;51.398;7.128;2023-05-10T04:35:29;29.77;;;19.53;;
2944;SDS011;1482;51.398;7.128;2023-05-10T04:37:54;33.17;;;21.90;;
2944;SDS011;1482;51.398;7.128;2023-05-10T04:40:20;39.00;;;24.57;;
2944;SDS011;1482;51.398;7.128;2023-05-10T04:42:45;31.87;;;21.50;;
2944;SDS011;1482;51.398;7.128;2023-05-10T04:45:11;34.17;;;20.80;;
2944;SDS011;1482;51.398;7.128;2023-05-10T04:47:37;43.07;;;23.83;;
2944;SDS011;1482;51.398;7.128;2023-05-10T04:50:06;32.97;;;21.37;;
2944;SDS011;1482;51.398;7.128;2023-05-10T04:52:32;41.03;;;23.47;;
2944;SDS011;1482;51.398;7.128;2023-05-10T04:54:58;41.30;;;26.00;;
2944;SDS011;1482;51.398;7.128;2023-05-10T04:57:23;35.67;;;23.67;;
2944;SDS011;1482;51.398;7.128;2023-05-10T04:59:49;36.20;;;22.13;;
2944;SDS011;1482;51.398;7.128;2023-05-10T05:02:14;50.90;;;25.40;;
2944;SDS011;1482;51.398;7.128;2023-05-10T05:04:40;40.80;;;23.10;;
2944;SDS011;1482;51.398;7.128;2023-05-10T05:07:05;39.33;;;22.07;;
2944;SDS011;1482;51.398;7.128;2023-05-10T05:09:31;41.03;;;22.70;;
2944;SDS011;1482;51.398;7.128;2023-05-10T05:11:57;36.30;;;22.83;;
2944;SDS011;1482;51.398;7.128;2023-05-10T05:14:23;38.37;;;21.87;;
2944;SDS011;1482;51.398;7.128;2023-05-10T05:16:50;49.40;;;26.77;;
2944;SDS011;1482;51.398;7.128;2023-05-10T05:19:16;44.63;;;26.23;;
2944;SDS011;1482;51.398;7.128;2023-05-10T05:21:42;45.20;;;25.80;;
2944;SDS011;1482;51.398;7.128;2023-05-10T05:24:08;40.60;;;24.60;;
2944;SDS011;1482;51.398;7.128;2023-05-10T05:26:33;49.97;;;27.10;;
2944;SDS011;1482;51.398;7.128;2023-05-10T05:28:59;48.87;;;26.20;;
2944;SDS011;1482;51.398;7.128;2023-05-10T05:31:24;46.57;;;26.20;;
2944;SDS011;1482;51.398;7.128;2023-05-10T05:33:50;45.50;;;25.37;;
2944;SDS011;1482;51.398;7.128;2023-05-10T05:36:16;50.30;;;27.97;;
2944;SDS011;1482;51.398;7.128;2023-05-10T05:38:41;45.30;;;28.50;;
2944;SDS011;1482;51.398;7.128;2023-05-10T05:41:07;50.30;;;27.17;;
2944;SDS011;1482;51.398;7.128;2023-05-10T05:43:33;53.57;;;29.10;;
2944;SDS011;1482;51.398;7.128;2023-05-10T05:45:59;46.00;;;28.17;;
2944;SDS011;1482;51.398;7.128;2023-05-10T05:48:24;42.57;;;25.50;;
2944;SDS011;1482;51.398;7.128;2023-05-10T05:50:50;47.27;;;28.67;;
2944;SDS011;1482;51.398;7.128;2023-05-10T05:53:18;44.43;;;27.67;;
2944;SDS011;1482;51.398;7.128;2023-05-10T05:55:51;42.70;;;26.30;;
2944;SDS011;1482;51.398;7.128;2023-05-10T05:58:20;49.80;;;28.00;;
2944;SDS011;1482;51.398;7.128;2023-05-10T06:00:46;50.07;;;29.23;;
2944;SDS011;1482;51.398;7.128;2023-05-10T06:03:12;35.80;;;24.80;;
2944;SDS011;1482;51.398;7.128;2023-05-10T06:05:37;38.53;;;27.33;;
2944;SDS011;1482;51.398;7.128;2023-05-10T06:08:03;44.63;;;28.43;;
2944;SDS011;1482;51.398;7.128;2023-05-10T06:10:29;40.53;;;25.50;;
2944;SDS011;1482;51.398;7.128;2023-05-10T06:12:55;35.40;;;24.47;;
2944;SDS011;1482;51.398;7.128;2023-05-10T06:15:21;34.40;;;25.13;;
2944;SDS011;1482;51.398;7.128;2023-05-10T06:17:46;32.07;;;23.17;;
2944;SDS011;1482;51.398;7.128;2023-05-10T06:20:14;33.90;;;24.00;;
2944;SDS011;1482;51.398;7.128;2023-05-10T06:22:40;32.77;;;23.83;;
2944;SDS011;1482;51.398;7.128;2023-05-10T06:25:05;36.20;;;24.90;;
2944;SDS011;1482;51.398;7.128;2023-05-10T06:27:31;32.53;;;22.93;;
2944;SDS011;1482;51.398;7.128;2023-05-10T06:29:57;34.17;;;21.70;;
2944;SDS011;1482;51.398;7.128;2023-05-10T06:32:23;40.00;;;25.10;;
2944;SDS011;1482;51.398;7.128;2023-05-10T06:34:48;33.07;;;25.07;;
2944;SDS011;1482;51.398;7.128;2023-05-10T06:37:14;37.13;;;24.53;;
2944;SDS011;1482;51.398;7.128;2023-05-10T06:39:39;28.50;;;21.83;;
2944;SDS011;1482;51.398;7.128;2023-05-10T06:42:05;28.57;;;22.33;;
2944;SDS011;1482;51.398;7.128;2023-05-10T06:44:30;33.20;;;25.67;;
2944;SDS011;1482;51.398;7.128;2023-05-10T06:46:56;31.67;;;22.43;;
2944;SDS011;1482;51.398;7.128;2023-05-10T06:49:22;34.93;;;23.60;;
2944;SDS011;1482;51.398;7.128;2023-05-10T06:51:47;31.30;;;23.93;;
2944;SDS011;1482;51.398;7.128;2023-05-10T06:54:13;34.37;;;24.87;;
2944;SDS011;1482;51.398;7.128;2023-05-10T06:56:39;35.13;;;26.17;;
2944;SDS011;1482;51.398;7.128;2023-05-10T06:59:04;32.93;;;24.70;;
2944;SDS011;1482;51.398;7.128;2023-05-10T07:01:30;40.70;;;28.00;;
2944;SDS011;1482;51.398;7.128;2023-05-10T07:03:55;34.53;;;25.53;;
2944;SDS011;1482;51.398;7.128;2023-05-10T07:06:21;35.67;;;25.40;;
2944;SDS011;1482;51.398;7.128;2023-05-10T07:08:47;46.63;;;27.37;;
2944;SDS011;1482;51.398;7.128;2023-05-10T07:11:12;39.83;;;27.13;;
2944;SDS011;1482;51.398;7.128;2023-05-10T07:13:38;35.70;;;27.97;;
2944;SDS011;1482;51.398;7.128;2023-05-10T07:16:06;45.33;;;29.90;;
2944;SDS011;1482;51.398;7.128;2023-05-10T07:18:32;44.33;;;29.60;;
2944;SDS011;1482;51.398;7.128;2023-05-10T07:20:58;38.90;;;27.67;;
2944;SDS011;1482;51.398;7.128;2023-05-10T07:23:23;41.50;;;26.87;;
2944;SDS011;1482;51.398;7.128;2023-05-10T07:25:50;39.07;;;26.00;;
2944;SDS011;1482;51.398;7.128;2023-05-10T07:28:17;44.57;;;28.03;;
2944;SDS011;1482;51.398;7.128;2023-05-10T07:30:43;37.90;;;25.13;;
2944;SDS011;1482;51.398;7.128;2023-05-10T07:33:09;38.83;;;24.10;;
2944;SDS011;1482;51.398;7.128;2023-05-10T07:35:36;36.87;;;24.07;;
2944;SDS011;1482;51.398;7.128;2023-05-10T07:38:01;34.33;;;23.23;;
2944;SDS011;1482;51.398;7.128;2023-05-10T07:40:27;33.10;;;22.80;;
2944;SDS011;1482;51.398;7.128;2023-05-10T07:42:53;33.53;;;21.40;;
2944;SDS011;1482;51.398;7.128;2023-05-10T07:45:19;32.73;;;23.17;;
2944;SDS011;1482;51.398;7.128;2023-05-10T07:47:45;32.67;;;21.93;;
2944;SDS011;1482;51.398;7.128;2023-05-10T07:50:10;33.27;;;21.60;;
2944;SDS011;1482;51.398;7.128;2023-05-10T07:52:36;34.07;;;22.50;;
2944;SDS011;1482;51.398;7.128;2023-05-10T07:55:01;33.47;;;21.17;;
2944;SDS011;1482;51.398;7.128;2023-05-10T07:57:27;32.57;;;23.13;;
2944;SDS011;1482;51.398;7.128;2023-05-10T07:59:53;32.37;;;21.90;;
2944;SDS011;1482;51.398;7.128;2023-05-10T08:02:18;36.17;;;22.73;;
2944;SDS011;1482;51.398;7.128;2023-05-10T08:04:43;38.93;;;23.70;;
2944;SDS011;1482;51.398;7.128;2023-05-10T08:07:09;38.47;;;21.97;;
2944;SDS011;1482;51.398;7.128;2023-05-10T08:09:35;35.43;;;23.20;;
2944;SDS011;1482;51.398;7.128;2023-05-10T08:12:01;34.10;;;23.53;;
2944;SDS011;1482;51.398;7.128;2023-05-10T08:14:27;36.20;;;22.70;;
2944;SDS011;1482;51.398;7.128;2023-05-10T08:16:53;42.07;;;22.70;;
2944;SDS011;1482;51.398;7.128;2023-05-10T08:19:19;29.30;;;20.60;;
2944;SDS011;1482;51.398;7.128;2023-05-10T08:21:46;39.20;;;23.50;;
2944;SDS011;1482;51.398;7.128;2023-05-10T08:24:12;29.67;;;20.27;;
2944;SDS011;1482;51.398;7.128;2023-05-10T08:26:37;29.77;;;20.60;;
2944;SDS011;1482;51.398;7.128;2023-05-10T08:29:03;28.30;;;18.57;;
2944;SDS011;1482;51.398;7.128;2023-05-10T08:31:28;33.80;;;19.33;;
2944;SDS011;1482;51.398;7.128;2023-05-10T08:33:54;18.40;;;13.60;;
2944;SDS011;1482;51.398;7.128;2023-05-10T08:36:19;16.17;;;12.47;;
2944;SDS011;1482;51.398;7.128;2023-05-10T08:38:52;17.70;;;13.23;;
2944;SDS011;1482;51.398;7.128;2023-05-10T08:41:22;17.33;;;11.70;;
2944;SDS011;1482;51.398;7.128;2023-05-10T08:43:52;18.40;;;12.47;;
2944;SDS011;1482;51.398;7.128;2023-05-10T08:46:19;13.80;;;10.10;;
2944;SDS011;1482;51.398;7.128;2023-05-10T08:48:46;11.97;;;10.07;;
2944;SDS011;1482;51.398;7.128;2023-05-10T08:51:13;13.80;;;11.90;;
2944;SDS011;1482;51.398;7.128;2023-05-10T08:53:40;17.90;;;12.07;;
2944;SDS011;1482;51.398;7.128;2023-05-10T08:56:06;19.77;;;14.07;;
2944;SDS011;1482;51.398;7.128;2023-05-10T08:58:32;19.97;;;14.07;;
2944;SDS011;1482;51.398;7.128;2023-05-10T09:00:57;22.63;;;14.30;;
2944;SDS011;1482;51.398;7.128;2023-05-10T09:03:25;18.10;;;14.10;;
2944;SDS011;1482;51.398;7.128;2023-05-10T09:05:51;19.30;;;13.70;;
2944;SDS011;1482;51.398;7.128;2023-05-10T09:08:17;22.40;;;15.73;;
2944;SDS011;1482;51.398;7.128;2023-05-10T09:10:43;17.80;;;14.50;;
2944;SDS011;1482;51.398;7.128;2023-05-10T09:13:12;18.73;;;14.53;;
2944;SDS011;1482;51.398;7.128;2023-05-10T09:15:38;20.03;;;15.50;;
2944;SDS011;1482;51.398;7.128;2023-05-10T09:18:04;21.93;;;14.73;;
2944;SDS011;1482;51.398;7.128;2023-05-10T09:20:30;16.63;;;12.77;;
2944;SDS011;1482;51.398;7.128;2023-05-10T09:22:56;20.93;;;14.07;;
2944;SDS011;1482;51.398;7.128;2023-05-10T09:25:21;17.73;;;13.47;;
2944;SDS011;1482;51.398;7.128;2023-05-10T09:27:47;21.67;;;14.57;;
2944;SDS011;1482;51.398;7.128;2023-05-10T09:30:17;19.10;;;14.63;;
2944;SDS011;1482;51.398;7.128;2023-05-10T09:32:53;21.70;;;15.63;;
2944;SDS011;1482;51.398;7.128;2023-05-10T09:35:20;30.10;;;19.40;;
2944;SDS011;1482;51.398;7.128;2023-05-10T09:37:51;28.30;;;18.23;;
2944;SDS011;1482;51.398;7.128;2023-05-10T09:40:22;20.10;;;15.93;;
2944;SDS011;1482;51.398;7.128;2023-05-10T09:45:26;24.00;;;16.83;;
2944;SDS011;1482;51.398;7.128;2023-05-10T09:47:54;23.57;;;17.63;;
2944;SDS011;1482;51.398;7.128;2023-05-10T09:50:20;26.40;;;17.60;;
2944;SDS011;1482;51.398;7.128;2023-05-10T09:52:53;22.70;;;18.30;;
2944;SDS011;1482;51.398;7.128;2023-05-10T09:55:20;27.90;;;18.60;;
2944;SDS011;1482;51.398;7.128;2023-05-10T09:57:47;27.90;;;19.60;;
2944;SDS011;1482;51.398;7.128;2023-05-10T10:00:18;32.10;;;23.73;;
2944;SDS011;1482;51.398;7.128;2023-05-10T10:02:45;31.80;;;22.00;;
2944;SDS011;1482;51.398;7.128;2023-05-10T10:05:13;32.00;;;22.30;;
2944;SDS011;1482;51.398;7.128;2023-05-10T10:07:39;33.53;;;22.27;;
2944;SDS011;1482;51.398;7.128;2023-05-10T10:10:05;32.13;;;22.27;;
2944;SDS011;1482;51.398;7.128;2023-05-10T10:12:36;32.73;;;20.47;;
2944;SDS011;1482;51.398;7.128;2023-05-10T10:15:02;30.73;;;21.60;;
2944;SDS011;1482;51.398;7.128;2023-05-10T10:17:29;32.03;;;21.03;;
2944;SDS011;1482;51.398;7.128;2023-05-10T10:19:56;26.83;;;18.80;;
2944;SDS011;1482;51.398;7.128;2023-05-10T10:22:22;25.97;;;17.67;;
2944;SDS011;1482;51.398;7.128;2023-05-10T10:24:48;24.43;;;18.50;;
2944;SDS011;1482;51.398;7.128;2023-05-10T10:27:19;30.33;;;18.70;;
2944;SDS011;1482;51.398;7.128;2023-05-10T10:29:52;29.57;;;18.30;;
2944;SDS011;1482;51.398;7.128;2023-05-10T10:32:38;20.47;;;16.73;;
2944;SDS011;1482;51.398;7.128;2023-05-10T10:35:22;29.03;;;17.63;;
2944;SDS011;1482;51.398;7.128;2023-05-10T10:37:49;17.87;;;15.20;;
2944;SDS011;1482;51.398;7.128;2023-05-10T10:40:26;18.93;;;15.30;;
2944;SDS011;1482;51.398;7.128;2023-05-10T10:42:53;18.57;;;14.23;;
2944;SDS011;1482;51.398;7.128;2023-05-10T10:45:19;19.13;;;14.50;;
2944;SDS011;1482;51.398;7.128;2023-05-10T10:47:46;17.30;;;13.70;;
2944;SDS011;1482;51.398;7.128;2023-05-10T10:50:11;15.63;;;13.40;;
2944;SDS011;1482;51.398;7.128;2023-05-10T10:52:43;16.37;;;14.67;;
2944;SDS011;1482;51.398;7.128;2023-05-10T11:07:52;25.43;;;14.37;;
2944;SDS011;1482;51.398;7.128;2023-05-10T11:10:22;17.47;;;14.00;;
2944;SDS011;1482;51.398;7.128;2023-05-10T11:13:07;21.80;;;15.20;;
2944;SDS011;1482;51.398;7.128;2023-05-10T11:15:37;21.60;;;15.27;;
2944;SDS011;1482;51.398;7.128;2023-05-10T11:18:20;17.30;;;14.30;;
2944;SDS011;1482;51.398;7.128;2023-05-10T11:21:01;19.83;;;17.73;;
2944;SDS011;1482;51.398;7.128;2023-05-10T11:26:07;19.03;;;15.13;;
2944;SDS011;1482;51.398;7.128;2023-05-10T11:28:42;18.27;;;15.40;;
2944;SDS011;1482;51.398;7.128;2023-05-10T11:31:15;22.77;;;15.53;;
2944;SDS011;1482;51.398;7.128;2023-05-10T11:33:42;22.50;;;16.10;;
2944;SDS011;1482;51.398;7.128;2023-05-10T11:36:16;20.00;;;16.77;;
2944;SDS011;1482;51.398;7.128;2023-05-10T11:38:46;27.10;;;17.77;;
2944;SDS011;1482;51.398;7.128;2023-05-10T11:41:12;22.23;;;16.93;;
2944;SDS011;1482;51.398;7.128;2023-05-10T11:43:38;21.33;;;17.47;;
2944;SDS011;1482;51.398;7.128;2023-05-10T11:46:08;23.67;;;18.27;;
2944;SDS011;1482;51.398;7.128;2023-05-10T11:48:36;26.53;;;18.20;;
2944;SDS011;1482;51.398;7.128;2023-05-10T11:51:09;22.33;;;17.50;;
2944;SDS011;1482;51.398;7.128;2023-05-10T11:53:35;16.40;;;14.60;;
2944;SDS011;1482;51.398;7.128;2023-05-10T11:56:10;22.50;;;15.73;;
2944;SDS011;1482;51.398;7.128;2023-05-10T11:58:36;20.30;;;15.30;;
2944;SDS011;1482;51.398;7.128;2023-05-10T12:01:04;14.63;;;12.93;;
2944;SDS011;1482;51.398;7.128;2023-05-10T12:03:31;15.63;;;13.63;;
2944;SDS011;1482;51.398;7.128;2023-05-10T12:05:57;14.40;;;11.40;;
2944;SDS011;1482;51.398;7.128;2023-05-10T12:08:24;15.93;;;12.40;;
2944;SDS011;1482;51.398;7.128;2023-05-10T12:10:51;12.87;;;11.40;;
2944;SDS011;1482;51.398;7.128;2023-05-10T12:13:17;13.83;;;11.60;;
2944;SDS011;1482;51.398;7.128;2023-05-10T12:15:43;18.83;;;13.03;;
2944;SDS011;1482;51.398;7.128;2023-05-10T12:18:09;15.43;;;13.93;;
2944;SDS011;1482;51.398;7.128;2023-05-10T12:20:36;16.20;;;13.87;;
2944;SDS011;1482;51.398;7.128;2023-05-10T12:23:02;16.90;;;15.17;;
2944;SDS011;1482;51.398;7.128;2023-05-10T12:25:32;17.33;;;15.63;;
2944;SDS011;1482;51.398;7.128;2023-05-10T12:27:59;19.10;;;16.50;;
2944;SDS011;1482;51.398;7.128;2023-05-10T12:30:26;16.23;;;14.40;;
2944;SDS011;1482;51.398;7.128;2023-05-10T12:32:53;15.83;;;14.23;;
2944;SDS011;1482;51.398;7.128;2023-05-10T12:35:24;15.00;;;13.50;;
2944;SDS011;1482;51.398;7.128;2023-05-10T12:37:50;16.77;;;15.00;;
2944;SDS011;1482;51.398;7.128;2023-05-10T12:40:16;15.20;;;13.70;;
2944;SDS011;1482;51.398;7.128;2023-05-10T12:42:41;17.20;;;13.73;;
2944;SDS011;1482;51.398;7.128;2023-05-10T12:45:09;17.80;;;13.80;;
2944;SDS011;1482;51.398;7.128;2023-05-10T12:47:37;17.17;;;14.70;;
2944;SDS011;1482;51.398;7.128;2023-05-10T12:50:03;15.23;;;12.67;;
2944;SDS011;1482;51.398;7.128;2023-05-10T12:52:30;14.37;;;12.87;;
2944;SDS011;1482;51.398;7.128;2023-05-10T12:54:57;13.20;;;11.90;;
2944;SDS011;1482;51.398;7.128;2023-05-10T12:57:23;19.77;;;15.07;;
2944;SDS011;1482;51.398;7.128;2023-05-10T12:59:49;17.53;;;15.70;;
2944;SDS011;1482;51.398;7.128;2023-05-10T13:02:14;15.13;;;13.50;;
2944;SDS011;1482;51.398;7.128;2023-05-10T13:04:42;15.13;;;13.57;;
2944;SDS011;1482;51.398;7.128;2023-05-10T13:07:08;15.57;;;14.10;;
2944;SDS011;1482;51.398;7.128;2023-05-10T13:09:35;14.30;;;12.80;;
2944;SDS011;1482;51.398;7.128;2023-05-10T13:12:01;17.90;;;14.27;;
2944;SDS011;1482;51.398;7.128;2023-05-10T13:14:27;15.03;;;13.60;;
2944;SDS011;1482;51.398;7.128;2023-05-10T13:16:53;15.53;;;14.03;;
2944;SDS011;1482;51.398;7.128;2023-05-10T13:19:19;18.57;;;15.50;;
2944;SDS011;1482;51.398;7.128;2023-05-10T13:21:44;13.50;;;12.23;;
2944;SDS011;1482;51.398;7.128;2023-05-10T13:24:10;14.70;;;13.37;;
2944;SDS011;1482;51.398;7.128;2023-05-10T13:26:38;13.70;;;12.27;;
2944;SDS011;1482;51.398;7.128;2023-05-10T13:29:07;13.47;;;12.13;;
2944;SDS011;1482;51.398;7.128;2023-05-10T13:31:33;13.73;;;12.43;;
2944;SDS011;1482;51.398;7.128;2023-05-10T13:33:59;15.37;;;11.00;;
2944;SDS011;1482;51.398;7.128;2023-05-10T13:36:25;12.60;;;10.70;;
2944;SDS011;1482;51.398;7.128;2023-05-10T13:38:51;11.63;;;8.67;;
2944;SDS011;1482;51.398;7.128;2023-05-10T13:41:16;9.67;;;8.40;;
2944;SDS011;1482;51.398;7.128;2023-05-10T13:43:42;8.93;;;7.57;;
2944;SDS011;1482;51.398;7.128;2023-05-10T13:46:08;13.47;;;9.43;;
2944;SDS011;1482;51.398;7.128;2023-05-10T13:48:33;9.00;;;8.20;;
2944;SDS011;1482;51.398;7.128;2023-05-10T13:50:59;8.00;;;7.20;;
2944;SDS011;1482;51.398;7.128;2023-05-10T13:53:24;7.93;;;7.10;;
2944;SDS011;1482;51.398;7.128;2023-05-10T13:55:50;8.43;;;7.63;;
2944;SDS011;1482;51.398;7.128;2023-05-10T13:58:16;8.23;;;7.53;;
2944;SDS011;1482;51.398;7.128;2023-05-10T14:00:41;6.17;;;5.67;;
2944;SDS011;1482;51.398;7.128;2023-05-10T14:03:07;8.03;;;7.23;;
2944;SDS011;1482;51.398;7.128;2023-05-10T14:05:34;8.10;;;7.37;;
2944;SDS011;1482;51.398;7.128;2023-05-10T14:07:59;9.23;;;8.13;;
2944;SDS011;1482;51.398;7.128;2023-05-10T14:10:25;10.87;;;8.60;;
2944;SDS011;1482;51.398;7.128;2023-05-10T14:12:50;14.00;;;10.60;;
2944;SDS011;1482;51.398;7.128;2023-05-10T14:15:16;9.80;;;8.90;;
2944;SDS011;1482;51.398;7.128;2023-05-10T14:17:41;10.40;;;9.20;;
2944;SDS011;1482;51.398;7.128;2023-05-10T14:20:07;13.70;;;10.37;;
2944;SDS011;1482;51.398;7.128;2023-05-10T14:22:33;9.47;;;8.13;;
2944;SDS011;1482;51.398;7.128;2023-05-10T14:24:59;10.07;;;9.17;;
2944;SDS011;1482;51.398;7.128;2023-05-10T14:27:25;8.97;;;8.17;;
2944;SDS011;1482;51.398;7.128;2023-05-10T14:29:51;10.10;;;9.10;;
2944;SDS011;1482;51.398;7.128;2023-05-10T14:32:16;12.13;;;10.80;;
2944;SDS011;1482;51.398;7.128;2023-05-10T14:34:42;12.03;;;10.40;;
2944;SDS011;1482;51.398;7.128;2023-05-10T14:37:09;11.10;;;10.00;;
2944;SDS011;1482;51.398;7.128;2023-05-10T14:39:36;11.97;;;10.70;;
2944;SDS011;1482;51.398;7.128;2023-05-10T14:42:02;11.97;;;10.77;;
2944;SDS011;1482;51.398;7.128;2023-05-10T14:44:28;12.80;;;10.87;;
2944;SDS011;1482;51.398;7.128;2023-05-10T14:46:53;12.63;;;11.27;;
2944;SDS011;1482;51.398;7.128;2023-05-10T14:49:20;12.27;;;11.07;;
2944;SDS011;1482;51.398;7.128;2023-05-10T14:51:47;12.87;;;11.60;;
2944;SDS011;1482;51.398;7.128;2023-05-10T14:54:13;13.37;;;12.03;;
2944;SDS011;1482;51.398;7.128;2023-05-10T14:56:39;15.10;;;12.10;;
2944;SDS011;1482;51.398;7.128;2023-05-10T14:59:06;14.00;;;12.20;;
2944;SDS011;1482;51.398;7.128;2023-05-10T15:01:32;15.03;;;12.90;;
2944;SDS011;1482;51.398;7.128;2023-05-10T15:03:59;12.60;;;11.30;;
2944;SDS011;1482;51.398;7.128;2023-05-10T15:06:30;15.13;;;12.20;;
2944;SDS011;1482;51.398;7.128;2023-05-10T15:08:56;16.10;;;10.97;;
2944;SDS011;1482;51.398;7.128;2023-05-10T15:11:22;12.17;;;10.97;;
2944;SDS011;1482;51.398;7.128;2023-05-10T15:13:48;12.33;;;10.90;;
2944;SDS011;1482;51.398;7.128;2023-05-10T15:16:13;12.23;;;10.10;;
2944;SDS011;1482;51.398;7.128;2023-05-10T15:18:39;13.00;;;11.20;;